Time;durP1;ratioP1;P1;durP2;ratioP2;P2;SDS_P1;SDS_P2;PMS_P1;PMS_P2;Temp;Humidity;BMP_temperature;BMP_pressure;BME280_temperature;BME280_humidity;BME280_pressure;Samples;Min_cycle;Max_cycle;Signal;HPM_P1;HPM_P2
2023/09/27 00:01:18;;;;;;;6.10;4.73;;;16.30;99.90;;;16.66;82.21;101079.72;4910654;29;20665;-69
2023/09/27 00:03:45;;;;;;;6.60;4.80;;;16.30;99.90;;;16.65;82.28;101076.25;4923157;29;20649;-68
2023/09/27 00:06:12;;;;;;;6.10;4.37;;;16.20;99.90;;;16.63;82.03;101080.03;4925468;29;20694;-68
2023/09/27 00:08:39;;;;;;;6.40;3.77;;;16.20;99.90;;;16.61;82.03;101080.13;4912571;29;20808;-68
2023/09/27 00:11:06;;;;;;;5.17;4.23;;;16.20;99.90;;;16.61;81.91;101074.88;4913693;29;20642;-69
2023/09/27 00:13:33;;;;;;;5.40;4.40;;;16.20;99.90;;;16.61;81.61;101074.06;4915364;29;20725;-69
2023/09/27 00:16:00;;;;;;;5.90;4.67;;;16.20;99.90;;;16.60;81.79;101075.84;4913006;29;20768;-69
2023/09/27 00:18:27;;;;;;;5.50;4.63;;;16.20;99.90;;;16.58;81.72;101083.06;4914630;29;20724;-69
2023/09/27 00:20:54;;;;;;;6.40;5.37;;;16.20;99.90;;;16.58;81.77;101076.97;4927852;29;20708;-68
2023/09/27 00:23:21;;;;;;;5.43;4.40;;;16.20;99.90;;;16.57;82.17;101072.69;4912170;29;20645;-70
2023/09/27 00:25:48;;;;;;;6.50;4.87;;;16.20;99.90;;;16.57;82.31;101073.47;4911761;29;20692;-68
2023/09/27 00:28:15;;;;;;;4.10;3.40;;;16.20;99.90;;;16.55;82.73;101066.69;4913067;29;20716;-69
2023/09/27 00:30:42;;;;;;;5.93;4.37;;;16.20;99.90;;;16.49;82.87;101070.69;4913592;29;21092;-70
2023/09/27 00:33:09;;;;;;;6.20;4.77;;;16.10;99.90;;;16.45;82.60;101058.75;4912428;29;20674;-67
2023/09/27 00:35:36;;;;;;;5.60;4.60;;;16.10;99.90;;;16.41;82.49;101070.53;4915527;29;20798;-68
2023/09/27 00:38:04;;;;;;;6.03;4.30;;;16.00;99.90;;;16.42;82.79;101077.47;4906111;29;20685;-67
2023/09/27 00:40:31;;;;;;;7.53;4.93;;;16.00;99.90;;;16.42;82.69;101072.19;4914749;29;20661;-68
2023/09/27 00:42:58;;;;;;;9.17;5.53;;;16.00;99.90;;;16.41;82.71;101074.97;4914421;29;20725;-68
2023/09/27 00:45:25;;;;;;;6.87;4.80;;;16.00;99.90;;;16.41;83.20;101077.59;4916110;29;20678;-68
2023/09/27 00:47:53;;;;;;;5.67;4.40;;;16.00;99.90;;;16.38;82.89;101083.13;4913260;29;21052;-68
2023/09/27 00:50:20;;;;;;;5.33;4.27;;;16.00;99.90;;;16.38;83.19;101097.13;4916085;29;20622;-69
2023/09/27 00:52:48;;;;;;;7.07;5.03;;;16.00;99.90;;;16.39;83.52;101101.44;4914462;29;20652;-68
2023/09/27 00:55:19;;;;;;;8.90;6.30;;;16.00;99.90;;;16.38;83.47;101089.25;4930191;29;21000;-68
2023/09/27 00:57:49;;;;;;;10.27;6.00;;;16.00;99.90;;;16.39;83.87;101093.56;4912381;29;20648;-69
2023/09/27 01:00:17;;;;;;;7.13;5.77;;;16.00;99.90;;;16.39;83.53;101092.72;4906740;29;20688;-69
2023/09/27 01:02:44;;;;;;;7.00;4.70;;;16.00;99.90;;;16.37;82.87;101092.00;4913090;29;20637;-69
2023/09/27 01:05:12;;;;;;;5.00;4.50;;;16.00;99.90;;;16.33;82.89;101080.94;4928699;29;20677;-69
2023/09/27 01:07:40;;;;;;;6.40;5.10;;;16.00;99.90;;;16.28;82.63;101072.59;4913205;29;20646;-70
2023/09/27 01:10:08;;;;;;;7.53;5.67;;;15.90;99.90;;;16.28;83.01;101075.22;4915607;29;20721;-69
2023/09/27 01:12:37;;;;;;;9.60;5.20;;;15.90;99.90;;;16.27;83.04;101073.56;4898113;29;21183;-69
2023/09/27 01:15:06;;;;;;;4.90;4.43;;;15.90;99.90;;;16.29;83.57;101069.00;4911989;29;20682;-68
2023/09/27 01:17:35;;;;;;;7.50;4.90;;;15.90;99.90;;;16.31;83.57;101067.06;4898903;29;20626;-68
2023/09/27 01:20:08;;;;;;;6.90;5.47;;;15.90;99.90;;;16.32;84.31;101068.72;4914726;29;21203;-69
2023/09/27 01:22:35;;;;;;;8.33;5.57;;;15.90;99.90;;;16.33;84.76;101070.41;4913629;29;20626;-69
2023/09/27 01:25:07;;;;;;;7.87;5.67;;;15.90;99.90;;;16.35;84.68;101064.97;4915231;29;20725;-69
2023/09/27 01:27:34;;;;;;;6.90;4.60;;;15.90;99.90;;;16.37;84.92;101055.16;4913771;29;20708;-68
2023/09/27 01:30:05;;;;;;;8.43;6.13;;;16.00;99.90;;;16.35;85.56;101055.28;4915340;29;20653;-69
2023/09/27 01:32:33;;;;;;;7.50;4.97;;;15.90;99.90;;;16.35;85.85;101055.28;4895759;29;20649;-69
2023/09/27 01:35:00;;;;;;;7.67;5.03;;;15.90;99.90;;;16.35;86.40;101050.03;4913145;29;20630;-67
2023/09/27 01:37:27;;;;;;;3.33;3.07;;;16.00;99.90;;;16.33;86.39;101051.13;4914035;29;20637;-67
2023/09/27 01:39:55;;;;;;;6.43;4.97;;;16.00;99.90;;;16.31;86.92;101041.53;4912057;29;20646;-69
2023/09/27 01:42:21;;;;;;;5.90;5.00;;;16.00;99.90;;;16.31;87.29;101040.75;4914349;29;20653;-69
2023/09/27 01:44:49;;;;;;;6.27;4.30;;;15.90;99.90;;;16.29;87.41;101032.16;4909758;29;21203;-66
2023/09/27 01:47:16;;;;;;;7.20;4.90;;;15.90;99.90;;;16.27;87.56;101023.53;4903113;29;20710;-69
2023/09/27 01:49:43;;;;;;;5.40;4.63;;;15.90;99.90;;;16.22;88.71;101026.59;4906245;29;20638;-66
2023/09/27 01:52:10;;;;;;;6.30;4.90;;;15.90;99.90;;;16.20;89.34;101019.78;4910591;29;20637;-69
2023/09/27 01:54:37;;;;;;;5.93;4.83;;;15.80;99.90;;;16.19;89.84;101010.22;4911588;29;20661;-70
2023/09/27 01:57:04;;;;;;;12.03;5.00;;;15.80;99.90;;;16.15;90.40;101007.03;4911048;29;20760;-69
2023/09/27 01:59:31;;;;;;;5.40;4.40;;;15.80;99.90;;;16.16;90.08;101005.25;4922634;29;20710;-66
2023/09/27 02:01:58;;;;;;;9.03;4.53;;;15.80;99.90;;;16.15;91.15;101008.81;4907602;29;20812;-70
2023/09/27 02:04:25;;;;;;;5.57;5.00;;;15.80;99.90;;;16.12;91.34;101019.66;4907368;29;22303;-67
2023/09/27 02:06:52;;;;;;;6.30;4.97;;;15.70;99.90;;;16.13;91.36;101016.03;4922603;29;20665;-69
2023/09/27 02:09:19;;;;;;;9.83;5.87;;;15.80;99.90;;;16.13;91.47;101029.19;4919530;29;21169;-69
2023/09/27 02:11:46;;;;;;;8.07;5.80;;;15.70;99.90;;;16.14;91.76;101033.50;4906749;29;20672;-70
2023/09/27 02:14:12;;;;;;;6.13;5.10;;;15.70;99.90;;;16.13;91.40;101040.56;4906544;29;20632;-69
2023/09/27 02:16:43;;;;;;;8.80;5.53;;;15.70;99.90;;;16.13;91.75;101048.47;4908714;29;20658;-68
2023/09/27 02:19:10;;;;;;;7.70;5.17;;;15.80;99.90;;;16.18;91.80;101045.44;4912543;29;20709;-69
2023/09/27 02:21:37;;;;;;;6.77;4.63;;;15.80;99.90;;;16.18;91.40;101045.44;4911155;29;20722;-68
2023/09/27 02:24:05;;;;;;;4.77;3.97;;;15.80;99.90;;;16.18;91.49;101042.78;4909452;29;21136;-68
2023/09/27 02:26:33;;;;;;;6.33;4.00;;;15.80;99.90;;;16.16;91.19;101036.84;4912853;29;21556;-69
2023/09/27 02:29:00;;;;;;;10.53;4.30;;;15.80;99.90;;;16.13;91.54;101035.31;4913024;29;21139;-69
2023/09/27 02:31:27;;;;;;;6.20;4.60;;;15.80;99.90;;;16.09;91.66;101046.22;4909976;29;20641;-68
2023/09/27 02:33:54;;;;;;;10.33;5.73;;;15.70;99.90;;;16.06;91.32;101049.97;4894849;29;20632;-68
2023/09/27 02:36:21;;;;;;;8.50;5.80;;;15.70;99.90;;;16.03;91.50;101059.94;4911421;29;20642;-69
2023/09/27 02:38:48;;;;;;;6.70;4.93;;;15.60;99.90;;;15.99;90.52;101064.63;4924685;29;20626;-68
2023/09/27 02:41:15;;;;;;;7.67;5.50;;;15.60;99.90;;;15.95;91.07;101080.84;4903108;29;20656;-68
2023/09/27 02:43:42;;;;;;;7.80;5.40;;;15.60;99.90;;;15.86;90.86;101071.09;4913188;29;21027;-69
2023/09/27 02:46:08;;;;;;;6.83;5.33;;;15.50;99.90;;;15.81;91.14;101068.03;4911251;29;20998;-68
2023/09/27 02:48:36;;;;;;;6.30;4.70;;;15.50;99.90;;;15.76;91.29;101073.69;4923624;29;20996;-68
2023/09/27 02:51:03;;;;;;;5.20;4.33;;;15.40;99.90;;;15.74;90.95;101075.63;4912267;29;20661;-70
2023/09/27 02:53:30;;;;;;;6.60;4.73;;;15.40;99.90;;;15.69;90.91;101067.31;4924852;29;20644;-67
2023/09/27 02:55:58;;;;;;;7.30;5.63;;;15.30;99.90;;;15.66;91.33;101066.72;4912125;29;20689;-67
2023/09/27 02:58:25;;;;;;;7.87;5.50;;;15.30;99.90;;;15.65;90.66;101075.59;4910762;29;20670;-67
2023/09/27 03:00:52;;;;;;;6.87;4.90;;;15.30;99.90;;;15.60;90.84;101078.63;4913414;29;20637;-68
2023/09/27 03:03:19;;;;;;;5.23;3.73;;;15.30;99.90;;;15.61;90.67;101076.81;4924034;29;20639;-68
2023/09/27 03:05:46;;;;;;;8.37;5.73;;;15.20;99.90;;;15.58;90.23;101083.19;4911676;29;20676;-68
2023/09/27 03:08:14;;;;;;;8.97;5.67;;;15.20;99.90;;;15.54;90.18;101085.22;4908047;29;20618;-68
2023/09/27 03:10:41;;;;;;;7.80;4.57;;;15.20;99.90;;;15.52;90.17;101079.25;4906851;29;20626;-69
2023/09/27 03:13:09;;;;;;;4.77;3.87;;;15.20;99.90;;;15.50;90.95;101081.19;4896065;29;20625;-68
2023/09/27 03:15:36;;;;;;;7.20;5.20;;;15.20;99.90;;;15.47;90.49;101076.19;4895025;29;21186;-68
2023/09/27 03:18:04;;;;;;;12.47;5.30;;;15.10;99.90;;;15.46;90.46;101079.78;4907763;29;20665;-69
2023/09/27 03:20:31;;;;;;;7.57;5.20;;;15.10;99.90;;;15.45;90.29;101082.56;4904670;29;20653;-71
2023/09/27 03:22:58;;;;;;;7.43;5.30;;;15.10;99.90;;;15.44;90.12;101086.97;4903591;29;20634;-69
2023/09/27 03:25:26;;;;;;;6.60;5.03;;;15.10;99.90;;;15.43;89.81;101095.84;4925405;29;20666;-68
2023/09/27 03:27:54;;;;;;;7.37;4.77;;;15.10;99.90;;;15.43;89.76;101100.25;4914599;29;20626;-69
2023/09/27 03:30:21;;;;;;;5.87;4.97;;;15.10;99.90;;;15.39;88.67;101109.34;4913586;29;21392;-69
2023/09/27 03:32:48;;;;;;;7.23;4.57;;;15.00;99.90;;;15.34;88.32;101109.72;4911802;29;21199;-68
2023/09/27 03:35:15;;;;;;;5.73;3.80;;;15.00;99.90;;;15.27;88.00;101111.19;4923340;29;20634;-70
2023/09/27 03:37:44;;;;;;;5.40;4.07;;;15.00;99.90;;;15.23;88.51;101096.63;4915079;29;20632;-70
2023/09/27 03:40:13;;;;;;;4.37;3.20;;;14.90;99.90;;;15.20;88.76;101094.28;4908830;29;21104;-67
2023/09/27 03:42:45;;;;;;;7.30;4.03;;;14.90;99.90;;;15.19;88.38;101102.28;4925703;29;20994;-69
2023/09/27 03:45:14;;;;;;;5.30;3.80;;;14.90;99.90;;;15.14;87.69;101102.66;4915302;29;20720;-68
2023/09/27 03:47:44;;;;;;;5.30;4.27;;;14.80;99.90;;;15.15;87.70;101114.00;4914404;29;20668;-69
2023/09/27 03:50:12;;;;;;;4.47;4.03;;;14.80;99.90;;;15.10;88.23;101114.41;4922869;29;21250;-69
2023/09/27 03:52:41;;;;;;;3.83;3.50;;;14.80;99.90;;;15.07;87.75;101104.16;4913248;29;20701;-69
2023/09/27 03:55:08;;;;;;;5.70;4.00;;;14.80;99.90;;;15.04;88.44;101114.91;4915795;29;20668;-68
2023/09/27 03:57:36;;;;;;;6.33;4.47;;;14.70;99.90;;;15.06;87.60;101112.13;4916518;29;21539;-69
2023/09/27 04:00:06;;;;;;;10.07;5.27;;;14.70;99.90;;;15.07;88.13;101117.28;4912453;29;20736;-69
2023/09/27 04:02:33;;;;;;;7.80;5.60;;;14.70;99.90;;;15.05;87.66;101115.75;4925907;29;20725;-68
2023/09/27 04:05:00;;;;;;;6.90;4.90;;;14.70;99.90;;;15.06;87.68;101126.13;4911700;29;20645;-68
2023/09/27 04:07:27;;;;;;;7.93;5.00;;;14.70;99.90;;;15.04;87.69;101116.69;4929053;29;20671;-69
2023/09/27 04:09:54;;;;;;;5.90;4.10;;;14.70;99.90;;;15.02;86.75;101106.31;4913669;29;20999;-68
2023/09/27 04:12:21;;;;;;;8.10;5.47;;;14.70;99.90;;;15.02;87.37;101106.31;4912771;29;21004;-69
2023/09/27 04:14:48;;;;;;;8.17;4.70;;;14.70;99.90;;;15.00;87.22;101104.78;4913295;29;20665;-67
2023/09/27 04:17:15;;;;;;;4.03;3.37;;;14.70;99.90;;;15.01;87.06;101094.16;4908551;29;20677;-68
2023/09/27 04:19:42;;;;;;;3.70;3.40;;;14.70;99.90;;;14.98;87.33;101086.50;4915765;29;20684;-69
2023/09/27 04:22:09;;;;;;;7.97;4.80;;;14.70;99.90;;;14.91;86.68;101087.97;4917655;29;20649;-68
2023/09/27 04:24:36;;;;;;;11.30;6.40;;;14.60;99.90;;;14.85;88.02;101099.00;4917400;29;20688;-68
2023/09/27 04:27:03;;;;;;;10.40;6.20;;;14.60;99.90;;;14.84;87.98;101110.47;4913856;29;21255;-68
2023/09/27 04:29:30;;;;;;;10.67;7.20;;;14.50;99.90;;;14.81;88.65;101107.25;4913697;29;20645;-70
2023/09/27 04:31:58;;;;;;;6.77;4.93;;;14.50;99.90;;;14.83;88.39;101100.06;4917203;29;20633;-68
2023/09/27 04:34:25;;;;;;;8.90;5.40;;;14.50;99.90;;;14.86;89.27;101098.03;4914581;29;20626;-66
2023/09/27 04:36:53;;;;;;;6.77;5.20;;;14.50;99.90;;;14.88;89.01;101090.88;4913385;29;21330;-69
2023/09/27 04:39:20;;;;;;;4.93;4.07;;;14.50;99.90;;;14.91;89.84;101095.00;4892440;29;21204;-70
2023/09/27 04:41:47;;;;;;;4.70;3.80;;;14.60;99.90;;;14.87;90.24;101091.81;4908059;29;20670;-69
2023/09/27 04:44:15;;;;;;;10.17;5.67;;;14.50;99.90;;;14.84;90.79;101099.97;4909431;29;20658;-69
2023/09/27 04:46:42;;;;;;;6.87;5.37;;;14.50;99.90;;;14.81;91.98;101094.94;4931018;29;20681;-69
2023/09/27 04:49:09;;;;;;;7.77;5.30;;;14.50;99.90;;;14.82;92.42;101103.69;4916829;29;20634;-69
2023/09/27 04:51:36;;;;;;;7.40;4.97;;;14.50;99.90;;;14.85;92.90;101106.88;4911748;29;20670;-70
2023/09/27 04:54:03;;;;;;;7.47;5.70;;;14.50;99.90;;;14.85;93.19;101104.25;4909263;29;20630;-69
2023/09/27 04:56:30;;;;;;;6.97;5.27;;;14.50;99.90;;;14.88;92.23;101109.25;4929169;29;20697;-69
2023/09/27 04:59:01;;;;;;;8.47;5.70;;;14.50;99.90;;;14.87;91.83;101115.47;4913329;29;21906;-68
2023/09/27 05:01:28;;;;;;;7.77;5.20;;;14.50;99.90;;;14.90;91.91;101107.34;4923258;29;20645;-70
2023/09/27 05:03:55;;;;;;;8.27;5.57;;;14.50;99.90;;;14.91;91.48;101105.53;4911002;29;21236;-70
2023/09/27 05:06:22;;;;;;;9.90;5.47;;;14.60;99.90;;;14.91;91.13;101110.78;4913314;29;20695;-69
2023/09/27 05:08:50;;;;;;;8.93;4.97;;;14.60;99.90;;;14.88;91.28;101122.41;4906872;29;20721;-69
2023/09/27 05:11:20;;;;;;;9.57;5.60;;;14.50;99.90;;;14.86;90.78;101119.06;4907425;29;21241;-70
2023/09/27 05:13:47;;;;;;;6.50;4.80;;;14.50;99.90;;;14.86;90.04;101121.69;4920060;29;20697;-68
2023/09/27 05:16:15;;;;;;;7.37;4.90;;;14.50;99.90;;;14.87;89.62;101125.97;4911860;29;20700;-67
2023/09/27 05:18:42;;;;;;;6.77;4.63;;;14.50;99.90;;;14.87;89.95;101119.88;4914301;29;20626;-68
2023/09/27 05:21:09;;;;;;;4.00;3.53;;;14.50;99.90;;;14.87;89.15;101130.38;4911989;29;20697;-70
2023/09/27 05:23:35;;;;;;;9.33;4.40;;;14.50;99.90;;;14.82;89.36;101140.47;4911230;29;20637;-69
2023/09/27 05:26:02;;;;;;;4.07;3.43;;;14.50;99.90;;;14.75;89.17;101137.50;4906900;29;20661;-69
2023/09/27 05:28:31;;;;;;;10.90;4.70;;;14.40;99.90;;;14.75;88.67;101145.38;4926601;29;20642;-68
2023/09/27 05:30:58;;;;;;;6.70;4.93;;;14.40;99.90;;;14.72;88.49;101137.72;4908882;29;21103;-69
2023/09/27 05:33:25;;;;;;;4.90;4.40;;;14.40;99.90;;;14.71;88.36;101139.50;4904559;29;20641;-69
2023/09/27 05:35:52;;;;;;;6.60;5.00;;;14.40;99.90;;;14.69;87.78;101130.13;4910234;29;20730;-67
2023/09/27 05:38:20;;;;;;;6.00;4.00;;;14.40;99.90;;;14.71;88.44;101130.81;4897033;29;20740;-70
2023/09/27 05:40:47;;;;;;;4.33;3.83;;;14.40;99.90;;;14.76;87.93;101136.50;4898416;29;20724;-69
2023/09/27 05:43:14;;;;;;;4.17;3.70;;;14.40;99.90;;;14.86;88.22;101129.56;4910846;29;21008;-69
2023/09/27 05:45:41;;;;;;;3.67;3.30;;;14.50;99.90;;;15.03;87.53;101129.03;4906994;29;20649;-70
2023/09/27 05:48:08;;;;;;;5.10;4.27;;;14.60;99.90;;;15.20;87.08;101130.25;4914387;29;20685;-68
2023/09/27 05:50:35;;;;;;;6.27;4.70;;;14.80;99.90;;;15.41;85.57;101125.81;4911211;29;21051;-69
2023/09/27 05:53:03;;;;;;;4.23;3.60;;;15.00;99.90;;;15.70;84.59;101132.09;4912995;29;20633;-70
2023/09/27 05:55:30;;;;;;;8.67;3.87;;;15.20;99.90;;;16.02;82.38;101138.06;4896676;29;20709;-68
2023/09/27 05:57:57;;;;;;;4.40;3.50;;;15.50;99.90;;;16.37;80.86;101132.38;4928841;29;20638;-69
2023/09/27 06:00:26;;;;;;;5.90;3.67;;;15.90;99.90;;;16.76;79.42;101130.66;4925393;29;21076;-69
2023/09/27 06:02:54;;;;;;;3.13;2.80;;;16.20;99.90;;;17.12;77.88;101132.59;4916525;29;20646;-69
2023/09/27 06:05:21;;;;;;;3.10;2.57;;;16.60;99.90;;;17.51;75.99;101134.22;4925935;29;21289;-69
2023/09/27 06:07:49;;;;;;;12.47;5.00;;;16.90;99.90;;;17.88;73.93;101126.31;4912095;29;21159;-68
2023/09/27 06:10:16;;;;;;;7.30;4.60;;;17.40;99.90;;;18.26;72.58;101136.69;4908555;29;20705;-70
2023/09/27 06:12:43;;;;;;;5.83;4.80;;;17.80;99.90;;;18.67;70.88;101134.53;4907269;29;20634;-70
2023/09/27 06:15:12;;;;;;;5.63;4.80;;;18.20;99.90;;;19.11;68.71;101138.91;4913175;29;20626;-68
2023/09/27 06:17:40;;;;;;;12.27;5.30;;;18.60;99.90;;;19.44;67.35;101145.31;4904868;29;20741;-69
2023/09/27 06:20:11;;;;;;;7.63;5.57;;;19.00;99.90;;;19.77;65.85;101141.88;4905227;29;20630;-69
2023/09/27 06:22:40;;;;;;;7.50;6.03;;;19.40;99.90;;;20.23;65.24;101153.91;4896695;29;20626;-67
2023/09/27 06:25:07;;;;;;;9.67;6.50;;;19.80;99.90;;;20.62;63.57;101155.00;4912014;29;20728;-69
2023/09/27 06:27:35;;;;;;;9.27;5.90;;;20.30;99.90;;;21.09;62.26;101158.75;4913811;29;21281;-69
2023/09/27 06:30:03;;;;;;;8.77;6.50;;;20.70;99.90;;;21.57;60.96;101168.53;4908330;29;20673;-69
2023/09/27 06:32:30;;;;;;;7.43;6.23;;;21.10;99.90;;;21.98;59.78;101172.75;4903504;29;20682;-68
2023/09/27 06:34:58;;;;;;;10.07;6.70;;;21.60;99.90;;;22.36;57.85;101165.78;4926923;29;20721;-70
2023/09/27 06:37:25;;;;;;;7.07;5.60;;;22.00;99.90;;;22.67;56.96;101168.50;4912204;29;21203;-68
2023/09/27 06:39:52;;;;;;;6.03;5.00;;;22.30;99.90;;;23.02;55.98;101163.44;4913565;29;21077;-71
2023/09/27 06:42:19;;;;;;;7.60;5.20;;;22.70;99.90;;;23.40;55.17;101168.81;4906733;29;20650;-69
2023/09/27 06:44:46;;;;;;;7.00;5.83;;;23.00;99.90;;;23.68;53.82;101170.69;4895860;29;20624;-70
2023/09/27 06:47:13;;;;;;;6.63;5.80;;;23.40;99.90;;;23.90;53.29;101171.63;4927175;29;20702;-68
2023/09/27 06:49:40;;;;;;;8.87;6.03;;;23.60;99.90;;;24.14;52.85;101166.06;4909549;29;20668;-69
2023/09/27 06:52:07;;;;;;;6.00;5.20;;;23.90;99.90;;;24.41;52.41;101167.19;4927653;29;20725;-70
2023/09/27 06:54:34;;;;;;;8.00;6.30;;;24.10;99.90;;;24.74;51.87;101168.44;4923870;29;20638;-68
2023/09/27 06:57:01;;;;;;;9.30;6.33;;;24.30;99.90;;;24.98;51.51;101165.38;4921770;29;20669;-69
2023/09/27 06:59:29;;;;;;;10.00;6.43;;;24.60;99.90;;;25.32;50.45;101162.03;4910967;29;20637;-69
2023/09/27 07:01:56;;;;;;;9.87;6.77;;;24.90;99.90;;;25.51;50.30;101157.88;4923958;29;20670;-70
2023/09/27 07:04:23;;;;;;;6.53;5.67;;;25.00;99.80;;;25.73;49.15;101164.78;4913199;29;20626;-68
2023/09/27 07:06:50;;;;;;;9.00;6.50;;;25.30;99.20;;;25.81;49.42;101157.44;4911936;29;20686;-71
2023/09/27 07:09:20;;;;;;;9.37;6.77;;;25.50;98.90;;;25.95;49.31;101159.19;4913799;29;20645;-70
2023/09/27 07:11:48;;;;;;;6.77;5.77;;;25.60;98.70;;;26.24;48.97;101154.63;4911208;29;20689;-69
2023/09/27 07:14:19;;;;;;;10.20;6.53;;;25.80;98.40;;;26.43;48.78;101151.22;4924419;29;20646;-69
2023/09/27 07:16:47;;;;;;;8.80;6.90;;;26.10;98.00;;;26.76;48.14;101147.63;4912614;29;21268;-69
2023/09/27 07:19:28;;;;;;;7.57;6.50;;;26.50;97.50;;;27.10;47.42;101143.94;4910037;29;20665;-69
2023/09/27 07:21:55;;;;;;;10.87;7.23;;;26.90;96.80;;;27.54;46.18;101141.47;4913321;29;20715;-71
2023/09/27 07:24:23;;;;;;;9.20;7.00;;;27.30;95.90;;;27.82;45.87;101149.25;4909365;29;20677;-71
2023/09/27 07:26:52;;;;;;;9.70;7.20;;;27.70;95.20;;;28.18;45.21;101148.75;4904107;29;20741;-70
2023/09/27 07:29:19;;;;;;;9.07;7.53;;;28.10;94.20;;;28.49;43.74;101151.53;4903271;29;20648;-71
2023/09/27 07:31:47;;;;;;;9.27;6.97;;;28.50;93.20;;;28.87;43.24;101148.84;4911370;29;20622;-69
2023/09/27 07:34:13;;;;;;;9.50;7.93;;;29.00;92.10;;;29.32;42.48;101160.31;4908706;29;20634;-70
2023/09/27 07:36:44;;;;;;;9.90;7.93;;;29.40;91.10;;;29.60;41.93;101160.69;4912854;29;20745;-70
2023/09/27 07:39:11;;;;;;;10.20;7.87;;;29.70;90.00;;;29.83;41.11;101164.41;4909288;29;20658;-70
2023/09/27 07:41:38;;;;;;;13.63;7.63;;;30.00;88.60;;;29.97;40.94;101162.38;4927121;29;20630;-69
2023/09/27 07:44:09;;;;;;;7.80;6.97;;;30.20;87.40;;;30.23;40.78;101164.75;4909157;29;20641;-70
2023/09/27 07:46:36;;;;;;;9.07;8.00;;;30.30;85.70;;;30.17;40.77;101162.13;4911355;29;20677;-70
2023/09/27 07:49:03;;;;;;;13.23;8.57;;;30.30;84.90;;;30.12;40.92;101153.91;4907321;29;20670;-69
2023/09/27 07:51:31;;;;;;;9.13;7.47;;;30.30;84.50;;;29.98;40.32;101157.81;4903206;29;20646;-69
2023/09/27 07:53:58;;;;;;;9.07;7.60;;;30.20;83.30;;;29.78;41.50;101163.41;4903875;29;21238;-70
2023/09/27 07:56:26;;;;;;;9.57;7.80;;;30.00;84.60;;;30.07;41.01;101151.88;4923706;29;21267;-70
2023/09/27 07:58:53;;;;;;;11.80;8.10;;;30.30;83.40;;;30.32;40.34;101141.91;4900865;29;20654;-69
2023/09/27 08:01:22;;;;;;;16.10;7.30;;;30.60;82.30;;;30.42;40.78;101135.94;4922684;29;20645;-70
2023/09/27 08:04:06;;;;;;;8.13;7.33;;;30.80;82.00;;;30.83;39.61;101136.00;4910036;29;20986;-71
2023/09/27 08:06:38;;;;;;;8.53;7.60;;;31.20;81.40;;;31.41;38.57;101138.81;4905155;29;20663;-70
2023/09/27 08:09:08;;;;;;;6.80;6.20;;;31.70;78.90;;;31.76;37.94;101136.06;4911376;29;20712;-71
2023/09/27 08:11:46;;;;;;;7.90;6.17;;;32.10;77.20;;;32.30;37.69;101140.19;4912804;29;20629;-70
2023/09/27 08:14:18;;;;;;;9.90;7.50;;;32.50;76.20;;;32.99;36.51;101139.09;4909007;29;20701;-70
2023/09/27 08:16:45;;;;;;;6.73;6.03;;;33.20;74.60;;;33.12;35.77;101144.16;4928962;29;20649;-71
2023/09/27 08:19:13;;;;;;;7.30;5.97;;;33.50;72.40;;;33.51;34.50;101135.06;4913122;29;20637;-71
2023/09/27 08:21:40;;;;;;;7.50;5.27;;;33.70;71.20;;;33.71;34.63;101145.38;4927522;29;20622;-70
2023/09/27 08:24:07;;;;;;;6.40;5.80;;;33.80;70.40;;;33.52;34.72;101132.09;4911256;29;20671;-71
2023/09/27 08:26:34;;;;;;;9.40;7.40;;;33.60;70.30;;;32.96;35.72;101126.84;4914831;29;21083;-71
2023/09/27 08:29:02;;;;;;;6.70;6.00;;;32.90;71.00;;;32.76;35.79;101132.72;4912003;29;21341;-71
2023/09/27 08:31:31;;;;;;;6.73;6.07;;;32.70;71.30;;;32.85;36.35;101130.44;4913185;29;20641;-69
2023/09/27 08:33:58;;;;;;;7.93;6.00;;;32.80;71.00;;;32.97;36.00;101136.59;4909428;29;20681;-69
2023/09/27 08:36:25;;;;;;;7.77;6.23;;;33.00;70.80;;;33.13;35.48;101135.00;4915203;29;20745;-69
2023/09/27 08:38:52;;;;;;;7.50;6.80;;;33.30;70.20;;;33.63;34.90;101142.00;4914234;29;20653;-68
2023/09/27 08:41:23;;;;;;;7.27;6.57;;;33.80;70.10;;;34.42;34.05;101147.88;4916000;29;21283;-69
2023/09/27 08:43:57;;;;;;;5.60;5.17;;;34.50;68.10;;;35.33;32.85;101148.75;4911691;29;20645;-70
2023/09/27 08:46:25;;;;;;;6.50;5.90;;;35.40;66.60;;;36.47;31.02;101155.91;4922980;29;20672;-70
2023/09/27 08:48:55;;;;;;;5.70;5.30;;;36.50;64.70;;;37.48;29.95;101152.41;4913247;29;20704;-69
2023/09/27 08:51:25;;;;;;;6.07;5.37;;;37.40;62.50;;;37.95;29.01;101159.09;4915240;29;20629;-70
2023/09/27 08:53:52;;;;;;;8.00;6.50;;;38.10;60.70;;;38.59;28.24;101161.78;4913001;29;20709;-70
2023/09/27 08:56:20;;;;;;;8.37;7.60;;;38.60;59.40;;;39.06;27.59;101161.16;4914963;29;20657;-68
2023/09/27 08:58:49;;;;;;;6.13;5.67;;;39.10;58.00;;;39.68;27.12;101149.41;4912467;29;20661;-70
2023/09/27 09:01:18;;;;;;;6.23;5.63;;;39.70;56.90;;;40.20;26.56;101153.97;4929815;29;20633;-69
2023/09/27 09:03:46;;;;;;;6.30;5.73;;;40.20;55.60;;;40.51;26.00;101144.22;4894298;29;20656;-69
2023/09/27 09:06:15;;;;;;;6.47;6.00;;;40.60;54.60;;;40.66;25.57;101141.25;4911967;29;20665;-70
2023/09/27 09:08:43;;;;;;;6.70;6.20;;;40.90;53.60;;;40.83;25.35;101138.00;4913441;29;21117;-69
2023/09/27 09:11:13;;;;;;;7.43;6.63;;;41.00;52.80;;;40.92;25.60;101131.56;4912900;29;21188;-71
2023/09/27 09:14:05;;;;;;;6.20;5.70;;;41.10;52.40;;;40.95;25.06;101136.41;4912025;29;20629;-72
2023/09/27 09:16:55;;;;;;;7.00;6.40;;;41.10;52.10;;;40.94;25.06;101131.25;4912250;29;20702;-71
2023/09/27 09:19:23;;;;;;;6.93;6.23;;;41.10;51.50;;;40.46;25.34;101125.19;4902937;29;20745;-69
2023/09/27 09:22:11;;;;;;;6.13;5.63;;;40.80;51.50;;;40.32;26.01;101113.31;4909642;29;20692;-69
2023/09/27 09:24:43;;;;;;;7.00;6.37;;;40.60;51.80;;;40.12;25.82;101111.69;4909901;29;20649;-70
2023/09/27 09:27:13;;;;;;;6.70;6.07;;;40.40;51.80;;;39.53;26.73;101103.09;4910791;29;20649;-69
2023/09/27 09:29:44;;;;;;;6.13;5.63;;;39.70;52.20;;;38.23;27.74;101094.91;4913262;29;21184;-70
2023/09/27 09:32:23;;;;;;;6.80;5.83;;;38.20;53.30;;;36.70;30.19;101096.63;4925581;29;20678;-69
2023/09/27 09:34:54;;;;;;;6.90;5.77;;;36.80;54.70;;;34.78;32.39;101082.13;4928142;29;20674;-71
2023/09/27 09:37:29;;;;;;;6.83;6.23;;;34.80;57.50;;;33.18;34.61;101076.38;4926846;29;21222;-71
2023/09/27 09:40:16;;;;;;;5.80;5.10;;;33.10;59.60;;;31.72;37.57;101075.56;4912452;29;20621;-69
2023/09/27 09:42:49;;;;;;;6.73;6.07;;;31.60;62.40;;;30.35;39.67;101060.66;4910515;29;20669;-68
2023/09/27 09:45:16;;;;;;;5.70;5.07;;;30.20;64.80;;;29.11;42.14;101060.19;4912908;29;20617;-72
2023/09/27 09:47:44;;;;;;;6.17;5.37;;;29.00;67.50;;;28.21;44.17;101054.44;4927656;29;20878;-68
2023/09/27 09:50:16;;;;;;;7.63;5.10;;;27.90;69.90;;;27.45;46.51;101059.63;4920531;29;21188;-70
2023/09/27 09:52:59;;;;;;;6.00;4.43;;;27.10;72.70;;;26.85;48.12;101050.00;4908116;29;20733;-68
2023/09/27 09:55:34;;;;;;;7.97;5.10;;;26.50;75.10;;;26.36;49.58;101040.66;4927356;29;20657;-66
2023/09/27 09:58:32;;;;;;;6.00;4.70;;;25.70;78.30;;;25.86;51.24;101037.41;4923727;29;20638;-68
2023/09/27 10:01:03;;;;;;;6.07;4.33;;;25.40;79.50;;;25.58;51.84;101041.97;4912353;29;20706;-69
2023/09/27 10:03:33;;;;;;;9.00;5.13;;;25.10;81.70;;;25.33;52.56;101040.78;4910674;29;20725;-68
2023/09/27 10:06:02;;;;;;;5.00;4.33;;;24.90;83.90;;;25.18;52.79;101042.72;4912039;29;20650;-69
2023/09/27 10:08:37;;;;;;;6.27;3.80;;;24.60;85.60;;;25.10;53.27;101045.56;4909815;29;20673;-70
2023/09/27 10:11:05;;;;;;;4.90;4.17;;;24.60;87.00;;;24.97;54.23;101056.97;4903011;29;20769;-69
2023/09/27 10:13:39;;;;;;;5.87;4.37;;;24.50;88.70;;;25.14;53.87;101054.84;4904968;29;20626;-69
2023/09/27 10:16:08;;;;;;;9.37;6.00;;;24.60;90.10;;;25.49;53.45;101045.84;4913640;29;20646;-69
2023/09/27 10:18:41;;;;;;;6.63;5.20;;;25.00;89.80;;;26.07;52.07;101055.97;4908729;29;20665;-71